Time;durP1;ratioP1;P1;durP2;ratioP2;P2;SDS_P1;SDS_P2;PMS_P1;PMS_P2;Temp;Humidity;BMP_temperature;BMP_pressure;BME280_temperature;BME280_humidity;BME280_pressure;Samples;Min_cycle;Max_cycle;Signal;HPM_P1;HPM_P2
2023/05/10 00:02:04;;;;;;;11.95;10.55;;;;;;;-148.88;100.00;-17125.47;5019571;28;20116;-78
2023/05/10 00:04:29;;;;;;;11.93;10.63;;;;;;;-148.88;100.00;-17125.47;5019695;28;20025;-78
2023/05/10 00:06:55;;;;;;;11.57;10.38;;;;;;;-148.88;100.00;-17125.47;5019564;28;20025;-78
2023/05/10 00:09:20;;;;;;;11.95;10.15;;;;;;;-148.88;100.00;-17125.47;5019798;28;20033;-78
2023/05/10 00:11:45;;;;;;;12.82;10.07;;;;;;;-148.88;100.00;-17125.47;5019957;28;20021;-78
2023/05/10 00:14:11;;;;;;;11.88;10.13;;;;;;;-148.88;100.00;-17125.47;5019656;28;20033;-79
2023/05/10 00:16:36;;;;;;;12.77;10.55;;;;;;;-148.88;100.00;-17125.47;5019461;28;20053;-77
2023/05/10 00:19:02;;;;;;;11.85;10.10;;;;;;;-148.88;100.00;-17125.47;5019211;28;20022;-78
2023/05/10 00:21:28;;;;;;;12.70;10.02;;;;;;;-148.88;100.00;-17125.47;5019506;28;20059;-78
2023/05/10 00:23:53;;;;;;;11.57;10.35;;;;;;;-148.88;100.00;-17125.47;5020268;28;20029;-78
2023/05/10 00:26:18;;;;;;;11.98;10.43;;;;;;;-148.88;100.00;-17125.47;5019218;28;20434;-78
2023/05/10 00:28:44;;;;;;;12.65;10.98;;;;;;;-148.88;100.00;-17125.47;4997866;28;20049;-78
2023/05/10 00:31:09;;;;;;;13.18;10.43;;;;;;;-148.88;100.00;-17125.47;5016045;28;20018;-78
2023/05/10 00:33:34;;;;;;;12.02;10.23;;;;;;;-148.88;100.00;-17125.47;5015912;28;20022;-78
2023/05/10 00:36:00;;;;;;;12.32;11.02;;;;;;;-148.88;100.00;-17125.47;5016089;28;20075;-78
2023/05/10 00:38:25;;;;;;;14.15;11.45;;;;;;;-148.88;100.00;-17125.47;4998054;28;20040;-78
2023/05/10 00:40:50;;;;;;;12.45;10.70;;;;;;;-148.88;100.00;-17125.47;4998219;28;20377;-78
2023/05/10 00:43:16;;;;;;;13.98;10.77;;;;;;;-148.88;100.00;-17125.47;5016135;28;20461;-78
2023/05/10 00:45:44;;;;;;;12.57;10.80;;;;;;;-148.88;100.00;-17125.47;4997966;28;20037;-78
2023/05/10 00:48:09;;;;;;;12.45;11.07;;;;;;;-148.88;100.00;-17125.47;4997869;28;20056;-78
2023/05/10 00:50:35;;;;;;;12.82;10.10;;;;;;;-148.88;100.00;-17125.47;5015388;28;20022;-78
2023/05/10 00:53:01;;;;;;;12.75;10.48;;;;;;;-148.88;100.00;-17125.47;5015927;28;20030;-77
2023/05/10 00:55:26;;;;;;;11.88;10.48;;;;;;;-148.88;100.00;-17125.47;5015258;28;20037;-78
2023/05/10 00:57:53;;;;;;;12.40;10.80;;;;;;;-148.88;100.00;-17125.47;5015404;28;20022;-77
2023/05/10 01:00:18;;;;;;;12.27;10.52;;;;;;;-148.88;100.00;-17125.47;4999027;28;20040;-78
2023/05/10 01:02:45;;;;;;;11.20;10.00;;;;;;;-148.88;100.00;-17125.47;5015423;28;20108;-77
2023/05/10 01:05:11;;;;;;;12.27;10.88;;;;;;;-148.88;100.00;-17125.47;5015190;28;20068;-78
2023/05/10 01:07:37;;;;;;;13.68;10.93;;;;;;;-148.88;100.00;-17125.47;5015233;28;20081;-78
2023/05/10 01:10:02;;;;;;;13.48;10.52;;;;;;;-148.88;100.00;-17125.47;5016039;28;20030;-78
2023/05/10 01:12:28;;;;;;;12.70;11.32;;;;;;;-148.88;100.00;-17125.47;5015636;28;20038;-77
2023/05/10 01:14:54;;;;;;;13.40;11.00;;;;;;;-148.88;100.00;-17125.47;5015330;28;20029;-77
2023/05/10 01:17:21;;;;;;;14.43;10.82;;;;;;;-148.88;100.00;-17125.47;5015449;28;20480;-78
2023/05/10 01:19:46;;;;;;;13.55;11.32;;;;;;;-148.88;100.00;-17125.47;4997857;28;20030;-78
2023/05/10 01:22:39;;;;;;;13.82;11.95;;;;;;;-148.88;100.00;-17125.47;4998043;28;20029;-78
2023/05/10 01:25:34;;;;;;;13.32;11.70;;;;;;;-148.88;100.00;-17125.47;5015689;28;20480;-77
2023/05/10 01:28:59;;;;;;;14.75;12.68;;;;;;;-148.88;100.00;-17125.47;5016055;28;20060;-78
2023/05/10 01:31:30;;;;;;;;;;;;;;;-148.88;100.00;-17125.47;4935910;29;20115;-77
2023/05/10 01:34:00;;;;;;;13.27;11.88;;;;;;;-148.88;100.00;-17125.47;5015703;28;20004;-78
2023/05/10 01:36:39;;;;;;;13.55;10.90;;;;;;;-148.88;100.00;-17125.47;5015944;28;20030;-78
2023/05/10 01:39:20;;;;;;;14.73;12.95;;;;;;;-148.88;100.00;-17125.47;5016226;28;20100;-78
2023/05/10 01:42:09;;;;;;;14.38;11.77;;;;;;;-148.88;100.00;-17125.47;5016310;28;20030;-78
2023/05/10 01:44:48;;;;;;;14.82;12.63;;;;;;;-148.88;100.00;-17125.47;5016303;28;20026;-78
2023/05/10 01:47:22;;;;;;;16.48;12.50;;;;;;;-148.88;100.00;-17125.47;5015564;28;20084;-78
2023/05/10 01:49:50;;;;;;;14.98;12.40;;;;;;;-148.88;100.00;-17125.47;5015715;28;20032;-77
2023/05/10 01:52:21;;;;;;;15.25;11.88;;;;;;;-148.88;100.00;-17125.47;4997891;28;20029;-77
2023/05/10 01:54:55;;;;;;;14.10;11.75;;;;;;;-148.88;100.00;-17125.47;5015156;28;20026;-78
2023/05/10 01:57:25;;;;;;;13.63;11.27;;;;;;;-148.88;100.00;-17125.47;5015236;28;20068;-79
2023/05/10 01:59:52;;;;;;;13.98;11.45;;;;;;;-148.88;100.00;-17125.47;5015613;28;20420;-78
2023/05/10 02:02:20;;;;;;;12.82;10.90;;;;;;;-148.88;100.00;-17125.47;5015682;28;20033;-78
2023/05/10 02:04:47;;;;;;;12.13;9.93;;;;;;;-148.88;100.00;-17125.47;4997621;28;20501;-79
2023/05/10 02:07:14;;;;;;;13.02;10.70;;;;;;;-148.88;100.00;-17125.47;5014149;28;20026;-77
2023/05/10 02:09:42;;;;;;;12.70;10.40;;;;;;;-148.88;100.00;-17125.47;5014659;28;20021;-78
2023/05/10 02:12:08;;;;;;;12.27;10.15;;;;;;;-148.88;100.00;-17125.47;5015180;28;20028;-78
2023/05/10 02:14:36;;;;;;;12.88;11.18;;;;;;;-148.88;100.00;-17125.47;5014514;28;20025;-78
2023/05/10 02:17:04;;;;;;;12.85;10.27;;;;;;;-148.88;100.00;-17125.47;5014287;28;20480;-78
2023/05/10 02:19:36;;;;;;;13.25;10.50;;;;;;;-148.88;100.00;-17125.47;5014740;28;20385;-78
2023/05/10 02:22:03;;;;;;;14.50;11.60;;;;;;;-148.88;100.00;-17125.47;5013796;28;20022;-77
2023/05/10 02:24:28;;;;;;;13.70;11.10;;;;;;;-148.88;100.00;-17125.47;5014078;28;20033;-78
2023/05/10 02:26:55;;;;;;;12.82;10.55;;;;;;;-148.88;100.00;-17125.47;5014475;28;20021;-77
2023/05/10 02:29:23;;;;;;;12.43;9.77;;;;;;;-148.88;100.00;-17125.47;4996601;28;20022;-78
2023/05/10 02:31:52;;;;;;;10.68;9.27;;;;;;;-148.88;100.00;-17125.47;5014468;28;20033;-77
2023/05/10 02:34:18;;;;;;;9.07;7.53;;;;;;;-148.88;100.00;-17125.47;5013679;28;20030;-78
2023/05/10 02:36:44;;;;;;;9.23;7.13;;;;;;;-148.88;100.00;-17125.47;5014515;28;20030;-78
2023/05/10 02:39:12;;;;;;;9.05;7.03;;;;;;;-148.88;100.00;-17125.47;5014407;28;20075;-78
2023/05/10 02:41:40;;;;;;;9.65;8.13;;;;;;;-148.88;100.00;-17125.47;5014512;28;20037;-78
2023/05/10 02:44:07;;;;;;;10.38;7.75;;;;;;;-148.88;100.00;-17125.47;4995853;28;20022;-78
2023/05/10 02:46:33;;;;;;;9.45;7.78;;;;;;;-148.88;100.00;-17125.47;4996132;28;20030;-77
2023/05/10 02:48:58;;;;;;;9.05;7.85;;;;;;;-148.88;100.00;-17125.47;5013578;28;20029;-77
2023/05/10 02:51:28;;;;;;;10.77;8.35;;;;;;;-148.88;100.00;-17125.47;5013072;28;20018;-78
2023/05/10 02:53:55;;;;;;;9.32;7.78;;;;;;;-148.88;100.00;-17125.47;4997637;28;20084;-77
2023/05/10 02:56:28;;;;;;;10.23;7.90;;;;;;;-148.88;100.00;-17125.47;5013151;28;20053;-77
2023/05/10 02:58:53;;;;;;;10.38;8.65;;;;;;;-148.88;100.00;-17125.47;5013408;28;20125;-77
2023/05/10 03:01:19;;;;;;;10.18;8.82;;;;;;;-148.88;100.00;-17125.47;4995359;28;20507;-77
2023/05/10 03:03:44;;;;;;;11.05;8.95;;;;;;;-148.88;100.00;-17125.47;5013612;28;20026;-77
2023/05/10 03:06:09;;;;;;;10.52;8.77;;;;;;;-148.88;100.00;-17125.47;4995667;28;20029;-78
2023/05/10 03:08:35;;;;;;;11.90;9.27;;;;;;;-148.88;100.00;-17125.47;4995602;28;20492;-77
2023/05/10 03:11:23;;;;;;;12.10;10.30;;;;;;;-148.88;100.00;-17125.47;4995075;28;20112;-77
2023/05/10 03:14:04;;;;;;;12.50;9.98;;;;;;;-148.88;100.00;-17125.47;4995001;28;20113;-77
2023/05/10 03:16:39;;;;;;;13.07;10.35;;;;;;;-148.88;100.00;-17125.47;5012701;28;20024;-78
2023/05/10 03:19:14;;;;;;;12.73;10.15;;;;;;;-148.88;100.00;-17125.47;4995222;28;20033;-77
2023/05/10 03:21:45;;;;;;;13.32;9.98;;;;;;;-148.88;100.00;-17125.47;5012589;28;20022;-78
2023/05/10 03:24:15;;;;;;;14.18;10.35;;;;;;;-148.88;100.00;-17125.47;5013329;28;20496;-78
2023/05/10 03:26:43;;;;;;;12.65;10.25;;;;;;;-148.88;100.00;-17125.47;5013428;28;20026;-77
2023/05/10 03:29:10;;;;;;;14.25;10.63;;;;;;;-148.88;100.00;-17125.47;5013399;28;20038;-78
2023/05/10 03:31:35;;;;;;;13.63;10.55;;;;;;;-148.88;100.00;-17125.47;5013648;28;20025;-77
2023/05/10 03:34:01;;;;;;;14.75;10.07;;;;;;;-148.88;100.00;-17125.47;5013427;28;20400;-79
2023/05/10 03:36:26;;;;;;;13.27;10.15;;;;;;;-148.88;100.00;-17125.47;5013584;28;20107;-79
2023/05/10 03:38:51;;;;;;;15.13;11.23;;;;;;;-148.88;100.00;-17125.47;4996988;28;20596;-78
2023/05/10 03:41:17;;;;;;;14.65;10.27;;;;;;;-148.88;100.00;-17125.47;5012654;28;20017;-77
2023/05/10 03:43:42;;;;;;;13.35;9.95;;;;;;;-148.88;100.00;-17125.47;5012460;28;20030;-77
2023/05/10 03:46:07;;;;;;;14.90;10.85;;;;;;;-148.88;100.00;-17125.47;5012243;28;20195;-77
2023/05/10 03:48:33;;;;;;;12.90;9.73;;;;;;;-148.88;100.00;-17125.47;4994772;28;20037;-77
2023/05/10 03:50:58;;;;;;;13.18;9.73;;;;;;;-148.88;100.00;-17125.47;5012576;28;20022;-76
2023/05/10 03:53:24;;;;;;;13.60;10.05;;;;;;;-148.88;100.00;-17125.47;5012208;28;20038;-76
2023/05/10 03:55:49;;;;;;;12.88;9.32;;;;;;;-148.88;100.00;-17125.47;5012052;28;20026;-76
2023/05/10 03:58:15;;;;;;;11.90;8.95;;;;;;;-148.88;100.00;-17125.47;4994478;28;20060;-76
2023/05/10 04:00:43;;;;;;;12.05;9.38;;;;;;;-148.88;100.00;-17125.47;5012065;28;20029;-76
2023/05/10 04:03:09;;;;;;;13.75;9.52;;;;;;;-148.88;100.00;-17125.47;5014199;28;20516;-76
2023/05/10 04:05:35;;;;;;;13.13;9.15;;;;;;;-148.88;100.00;-17125.47;4998052;28;20073;-76
2023/05/10 04:08:00;;;;;;;13.93;9.77;;;;;;;-148.88;100.00;-17125.47;5015682;28;20098;-77
2023/05/10 04:10:25;;;;;;;11.38;8.30;;;;;;;-148.88;100.00;-17125.47;5015672;28;20024;-77
2023/05/10 04:12:51;;;;;;;9.55;6.95;;;;;;;-148.88;100.00;-17125.47;5015757;28;20033;-76
2023/05/10 04:15:16;;;;;;;6.30;4.45;;;;;;;-148.88;100.00;-17125.47;4997955;28;20420;-76
2023/05/10 04:17:41;;;;;;;5.43;4.07;;;;;;;-148.88;100.00;-17125.47;5015832;28;20018;-76
2023/05/10 04:20:08;;;;;;;3.10;2.40;;;;;;;-148.88;100.00;-17125.47;5015703;28;20030;-76
2023/05/10 04:22:33;;;;;;;2.50;1.75;;;;;;;-148.88;100.00;-17125.47;5015889;28;20490;-76
2023/05/10 04:24:58;;;;;;;2.58;1.40;;;;;;;-148.88;100.00;-17125.47;5015432;28;20040;-76
2023/05/10 04:27:24;;;;;;;2.20;1.50;;;;;;;-148.88;100.00;-17125.47;5015530;28;20038;-76
2023/05/10 04:29:50;;;;;;;2.03;1.45;;;;;;;-148.88;100.00;-17125.47;5015370;28;20056;-76
2023/05/10 04:32:16;;;;;;;3.42;2.17;;;;;;;-148.88;100.00;-17125.47;5015391;28;20071;-76
2023/05/10 04:34:42;;;;;;;3.42;2.30;;;;;;;-148.88;100.00;-17125.47;5015255;28;20022;-77
2023/05/10 04:37:07;;;;;;;3.47;2.40;;;;;;;-148.88;100.00;-17125.47;5015666;28;20036;-76
2023/05/10 04:39:33;;;;;;;3.47;2.95;;;;;;;-148.88;100.00;-17125.47;5015200;28;20057;-76
2023/05/10 04:41:58;;;;;;;5.10;3.55;;;;;;;-148.88;100.00;-17125.47;5015474;28;20036;-76
2023/05/10 04:44:23;;;;;;;4.50;3.85;;;;;;;-148.88;100.00;-17125.47;5015819;28;20021;-76
2023/05/10 04:46:49;;;;;;;4.97;3.67;;;;;;;-148.88;100.00;-17125.47;5016572;28;20113;-76
2023/05/10 04:49:14;;;;;;;4.70;4.00;;;;;;;-148.88;100.00;-17125.47;5015320;28;20537;-76
2023/05/10 04:51:39;;;;;;;5.47;4.57;;;;;;;-148.88;100.00;-17125.47;5015098;28;20022;-76
2023/05/10 04:54:04;;;;;;;6.35;5.13;;;;;;;-148.88;100.00;-17125.47;5014992;28;20492;-76
2023/05/10 04:56:30;;;;;;;7.00;4.60;;;;;;;-148.88;100.00;-17125.47;5014972;28;20025;-76
2023/05/10 04:58:55;;;;;;;6.70;5.20;;;;;;;-148.88;100.00;-17125.47;5014898;28;20154;-76
2023/05/10 05:01:20;;;;;;;8.25;5.65;;;;;;;-148.88;100.00;-17125.47;5014767;28;20025;-76
2023/05/10 05:03:45;;;;;;;8.13;5.93;;;;;;;-148.88;100.00;-17125.47;5015131;28;20025;-76
2023/05/10 05:06:11;;;;;;;10.55;6.20;;;;;;;-148.88;100.00;-17125.47;5014804;28;20104;-76
2023/05/10 05:08:36;;;;;;;10.15;7.25;;;;;;;-148.88;100.00;-17125.47;5014745;28;20044;-76
2023/05/10 05:11:02;;;;;;;9.50;6.80;;;;;;;-148.88;100.00;-17125.47;5014845;28;20418;-76
2023/05/10 05:13:27;;;;;;;8.20;6.78;;;;;;;-148.88;100.00;-17125.47;5014215;28;20028;-77
2023/05/10 05:15:53;;;;;;;8.65;6.75;;;;;;;-148.88;100.00;-17125.47;5013958;28;20028;-76
2023/05/10 05:18:18;;;;;;;8.32;7.13;;;;;;;-148.88;100.00;-17125.47;5014601;28;20048;-77
2023/05/10 05:20:43;;;;;;;10.98;8.60;;;;;;;-148.88;100.00;-17125.47;5014374;28;20068;-76
2023/05/10 05:23:09;;;;;;;9.50;7.22;;;;;;;-148.88;100.00;-17125.47;4996825;28;20057;-77
2023/05/10 05:25:34;;;;;;;9.40;7.55;;;;;;;-148.88;100.00;-17125.47;4996704;28;20037;-77
2023/05/10 05:27:59;;;;;;;10.25;7.55;;;;;;;-148.88;100.00;-17125.47;5014370;28;20088;-76
2023/05/10 05:30:25;;;;;;;9.23;7.32;;;;;;;-148.88;100.00;-17125.47;5014192;28;20110;-76
2023/05/10 05:32:50;;;;;;;8.90;7.90;;;;;;;-148.88;100.00;-17125.47;5014250;28;20030;-76
2023/05/10 05:35:15;;;;;;;8.95;7.55;;;;;;;-148.88;100.00;-17125.47;5014211;28;20018;-76
2023/05/10 05:37:41;;;;;;;9.07;7.68;;;;;;;-148.88;100.00;-17125.47;5014067;28;20022;-76
2023/05/10 05:40:12;;;;;;;9.68;6.50;;;;;;;-148.88;100.00;-17125.47;5014241;28;20022;-76
2023/05/10 05:42:38;;;;;;;7.32;6.10;;;;;;;-148.88;100.00;-17125.47;5014462;28;20030;-76
2023/05/10 05:45:03;;;;;;;8.43;6.85;;;;;;;-148.88;100.00;-17125.47;5013966;28;20500;-76
2023/05/10 05:47:29;;;;;;;7.28;6.18;;;;;;;-148.88;100.00;-17125.47;5014039;28;20060;-76
2023/05/10 05:49:55;;;;;;;7.47;6.28;;;;;;;-148.88;100.00;-17125.47;5014007;28;20103;-76
2023/05/10 05:52:21;;;;;;;8.63;6.50;;;;;;;-148.88;100.00;-17125.47;4996175;28;20029;-77
2023/05/10 05:54:46;;;;;;;8.50;6.93;;;;;;;-148.88;100.00;-17125.47;4996315;28;20397;-76
2023/05/10 05:57:11;;;;;;;7.55;6.22;;;;;;;-148.88;100.00;-17125.47;5013846;28;20493;-76
2023/05/10 05:59:41;;;;;;;8.43;6.93;;;;;;;-148.88;100.00;-17125.47;5013842;28;20065;-77
2023/05/10 06:02:07;;;;;;;9.65;7.60;;;;;;;-148.88;100.00;-17125.47;4995997;28;20014;-77
2023/05/10 06:04:33;;;;;;;10.32;7.55;;;;;;;-148.88;100.00;-17125.47;5013764;28;20026;-77
2023/05/10 06:06:58;;;;;;;9.38;7.53;;;;;;;-148.88;100.00;-17125.47;5013720;28;20085;-77
2023/05/10 06:09:24;;;;;;;8.18;7.22;;;;;;;-148.88;100.00;-17125.47;4996027;28;20034;-76
2023/05/10 06:11:49;;;;;;;9.43;7.05;;;;;;;-148.88;100.00;-17125.47;4995837;28;20026;-76
2023/05/10 06:14:15;;;;;;;8.90;7.00;;;;;;;-148.88;100.00;-17125.47;5013473;28;20018;-76
2023/05/10 06:16:40;;;;;;;8.07;6.93;;;;;;;-148.88;100.00;-17125.47;5013466;28;20172;-76
2023/05/10 06:19:05;;;;;;;7.28;6.57;;;;;;;-148.88;100.00;-17125.47;5013440;28;20103;-76
2023/05/10 06:21:31;;;;;;;8.07;6.53;;;;;;;-148.88;100.00;-17125.47;5013446;28;20018;-77
2023/05/10 06:23:56;;;;;;;8.05;6.20;;;;;;;-148.88;100.00;-17125.47;5013741;28;20026;-76
2023/05/10 06:26:21;;;;;;;6.63;5.30;;;;;;;-148.88;100.00;-17125.47;4995055;28;20091;-77
2023/05/10 06:28:46;;;;;;;5.28;4.75;;;;;;;-148.88;100.00;-17125.47;5013394;28;20454;-76
2023/05/10 06:31:12;;;;;;;5.07;4.45;;;;;;;-148.88;100.00;-17125.47;5013255;28;20026;-76
2023/05/10 06:33:37;;;;;;;5.97;4.55;;;;;;;-148.88;100.00;-17125.47;5013510;28;20393;-76
2023/05/10 06:36:03;;;;;;;5.82;4.47;;;;;;;-148.88;100.00;-17125.47;5014440;28;20084;-76
2023/05/10 06:38:28;;;;;;;6.78;4.70;;;;;;;-148.88;100.00;-17125.47;5013214;28;20033;-76
2023/05/10 06:40:53;;;;;;;6.95;4.13;;;;;;;-148.88;100.00;-17125.47;5013108;28;20018;-76
2023/05/10 06:43:18;;;;;;;5.72;4.45;;;;;;;-148.88;100.00;-17125.47;5013091;28;20034;-77
2023/05/10 06:45:44;;;;;;;5.85;4.15;;;;;;;-148.88;100.00;-17125.47;5012942;28;20099;-76
2023/05/10 06:48:09;;;;;;;5.40;3.90;;;;;;;-148.88;100.00;-17125.47;5012984;28;20033;-76
2023/05/10 06:50:34;;;;;;;5.13;3.97;;;;;;;-148.88;100.00;-17125.47;5012879;28;20057;-76
2023/05/10 06:53:01;;;;;;;4.90;3.70;;;;;;;-148.88;100.00;-17125.47;4995231;28;20026;-76
2023/05/10 06:55:27;;;;;;;7.07;4.43;;;;;;;-148.88;100.00;-17125.47;5012752;28;20026;-76
2023/05/10 06:57:52;;;;;;;5.13;4.38;;;;;;;-148.88;100.00;-17125.47;5013176;28;20037;-76
2023/05/10 07:00:18;;;;;;;7.57;5.32;;;;;;;-148.88;100.00;-17125.47;4995550;28;20087;-76
2023/05/10 07:02:44;;;;;;;6.43;4.85;;;;;;;-148.88;100.00;-17125.47;5012734;28;20026;-76
2023/05/10 07:05:09;;;;;;;6.03;4.53;;;;;;;-148.88;100.00;-17125.47;5012642;28;20026;-77
2023/05/10 07:07:35;;;;;;;6.35;4.50;;;;;;;-148.88;100.00;-17125.47;4995080;28;20022;-76
2023/05/10 07:10:00;;;;;;;5.38;4.45;;;;;;;-148.88;100.00;-17125.47;4995004;28;20112;-76
2023/05/10 07:12:26;;;;;;;6.78;4.75;;;;;;;-148.88;100.00;-17125.47;5012670;28;20029;-76
2023/05/10 07:14:52;;;;;;;6.47;5.10;;;;;;;-148.88;100.00;-17125.47;5012792;28;20456;-76
2023/05/10 07:17:17;;;;;;;9.45;5.53;;;;;;;-148.88;100.00;-17125.47;4994996;28;20060;-76
2023/05/10 07:19:43;;;;;;;7.10;5.75;;;;;;;-148.88;100.00;-17125.47;5012586;28;20520;-76
2023/05/10 07:22:08;;;;;;;8.02;5.55;;;;;;;-148.88;100.00;-17125.47;5012637;28;20022;-76
2023/05/10 07:24:33;;;;;;;7.30;5.30;;;;;;;-148.88;100.00;-17125.47;4994883;28;20109;-76
2023/05/10 07:26:59;;;;;;;6.22;5.30;;;;;;;-148.88;100.00;-17125.47;5012607;28;20031;-76
2023/05/10 07:29:24;;;;;;;7.03;5.70;;;;;;;-148.88;100.00;-17125.47;5012600;28;20032;-76
2023/05/10 07:31:50;;;;;;;6.72;6.00;;;;;;;-148.88;100.00;-17125.47;5012502;28;20034;-75
2023/05/10 07:34:15;;;;;;;10.93;6.45;;;;;;;-148.88;100.00;-17125.47;5012432;28;20022;-76
2023/05/10 07:36:40;;;;;;;8.98;6.32;;;;;;;-148.88;100.00;-17125.47;5012525;28;20041;-75
2023/05/10 07:39:06;;;;;;;10.15;6.07;;;;;;;-148.88;100.00;-17125.47;5016248;28;20028;-76
2023/05/10 07:41:32;;;;;;;9.20;5.57;;;;;;;-148.88;100.00;-17125.47;4998733;28;20020;-76
2023/05/10 07:43:57;;;;;;;8.07;5.72;;;;;;;-148.88;100.00;-17125.47;5016358;28;20018;-76
2023/05/10 07:46:22;;;;;;;10.90;7.15;;;;;;;-148.88;100.00;-17125.47;4998562;28;20544;-76
2023/05/10 07:48:47;;;;;;;12.25;7.85;;;;;;;-148.88;100.00;-17125.47;5016254;28;20030;-76
2023/05/10 07:51:13;;;;;;;9.60;6.97;;;;;;;-148.88;100.00;-17125.47;5016008;28;20049;-76
2023/05/10 07:53:38;;;;;;;12.65;8.07;;;;;;;-148.88;100.00;-17125.47;5016108;28;20087;-76
2023/05/10 07:56:21;;;;;;;10.80;7.57;;;;;;;-148.88;100.00;-17125.47;5016104;28;20052;-76
2023/05/10 07:58:47;;;;;;;12.90;8.90;;;;;;;-148.88;100.00;-17125.47;5016025;28;20026;-76
2023/05/10 08:01:12;;;;;;;15.35;9.00;;;;;;;-148.88;100.00;-17125.47;5016227;28;20079;-76
2023/05/10 08:03:37;;;;;;;12.93;8.48;;;;;;;-148.88;100.00;-17125.47;5015958;28;20045;-76
2023/05/10 08:06:03;;;;;;;11.60;8.48;;;;;;;-148.88;100.00;-17125.47;5015848;28;20030;-76
2023/05/10 08:08:28;;;;;;;13.60;9.50;;;;;;;-148.88;100.00;-17125.47;5015859;28;20018;-76
2023/05/10 08:10:53;;;;;;;14.95;9.88;;;;;;;-148.88;100.00;-17125.47;5015817;28;20054;-76
2023/05/10 08:13:19;;;;;;;15.48;10.15;;;;;;;-148.88;100.00;-17125.47;5016183;28;20499;-75
2023/05/10 08:15:44;;;;;;;15.05;10.32;;;;;;;-148.88;100.00;-17125.47;5015768;28;20160;-76
2023/05/10 08:18:09;;;;;;;15.57;9.95;;;;;;;-148.88;100.00;-17125.47;5015790;28;20084;-76
2023/05/10 08:20:34;;;;;;;15.15;10.55;;;;;;;-148.88;100.00;-17125.47;4998185;28;20033;-76
2023/05/10 08:23:00;;;;;;;16.27;11.27;;;;;;;-148.88;100.00;-17125.47;5015768;28;20112;-76
2023/05/10 08:25:25;;;;;;;15.98;11.18;;;;;;;-148.88;100.00;-17125.47;5015971;28;20026;-77
2023/05/10 08:27:50;;;;;;;17.58;12.00;;;;;;;-148.88;100.00;-17125.47;5017003;28;20018;-76
2023/05/10 08:30:42;;;;;;;15.65;11.38;;;;;;;-148.88;100.00;-17125.47;5061022;22;20053;-87
2023/05/10 08:33:10;;;;;;;17.67;12.05;;;;;;;-148.88;100.00;-17125.47;4987697;28;20033;-86
2023/05/10 08:36:19;;;;;;;18.77;12.25;;;;;;;-148.88;100.00;-17125.47;5002180;28;20025;-86
2023/05/10 08:39:13;;;;;;;19.27;12.30;;;;;;;-148.88;100.00;-17125.47;5001855;28;20044;-87
2023/05/10 08:42:22;;;;;;;20.02;13.38;;;;;;;-148.88;100.00;-17125.47;5000623;28;20026;-87
2023/05/10 08:48:11;;;;;;;20.65;13.15;;;;;;;-148.88;100.00;-17125.47;5019194;28;20041;-85
2023/05/10 08:50:41;;;;;;;18.73;12.52;;;;;;;-148.88;100.00;-17125.47;5020647;28;20010;-85
2023/05/10 08:53:27;;;;;;;18.90;12.10;;;;;;;-148.88;100.00;-17125.47;5023396;28;20014;-85
2023/05/10 08:56:02;;;;;;;20.85;14.00;;;;;;;-148.88;100.00;-17125.47;5014311;28;20042;-86
2023/05/10 08:58:34;;;;;;;21.85;14.10;;;;;;;-148.88;100.00;-17125.47;5007699;28;20097;-85
2023/05/10 09:01:09;;;;;;;21.45;14.48;;;;;;;-148.88;100.00;-17125.47;5005444;28;20029;-85
2023/05/10 09:03:38;;;;;;;23.30;14.55;;;;;;;-148.88;100.00;-17125.47;5020050;28;20026;-84
2023/05/10 09:06:04;;;;;;;20.80;14.57;;;;;;;-148.88;100.00;-17125.47;5005440;28;20026;-85
2023/05/10 09:08:49;;;;;;;28.52;16.92;;;;;;;-148.88;100.00;-17125.47;5022200;28;20165;-87
2023/05/10 09:11:15;;;;;;;23.30;14.73;;;;;;;-148.88;100.00;-17125.47;5001926;28;20038;-86
2023/05/10 09:13:42;;;;;;;24.00;15.20;;;;;;;-148.88;100.00;-17125.47;5006399;28;20550;-86
2023/05/10 09:16:07;;;;;;;21.50;14.45;;;;;;;-148.88;100.00;-17125.47;5006988;28;20097;-86
2023/05/10 09:18:54;;;;;;;22.50;14.18;;;;;;;-148.88;100.00;-17125.47;5009396;28;20018;-86
2023/05/10 09:21:20;;;;;;;20.20;13.73;;;;;;;-148.88;100.00;-17125.47;5003822;28;20021;-86
2023/05/10 09:23:46;;;;;;;20.45;12.68;;;;;;;-148.88;100.00;-17125.47;5003511;28;20029;-85
2023/05/10 09:26:12;;;;;;;21.48;13.43;;;;;;;-148.88;100.00;-17125.47;5022219;28;20078;-85
2023/05/10 09:28:58;;;;;;;22.20;12.88;;;;;;;-148.88;100.00;-17125.47;5004361;28;20029;-86
2023/05/10 09:31:27;;;;;;;18.35;13.27;;;;;;;-148.88;100.00;-17125.47;5029510;28;20447;-86
2023/05/10 09:33:56;;;;;;;22.63;14.18;;;;;;;-148.88;100.00;-17125.47;5005353;28;20029;-85
2023/05/10 09:36:28;;;;;;;19.75;12.45;;;;;;;-148.88;100.00;-17125.47;5004515;28;20029;-85
2023/05/10 09:38:54;;;;;;;18.33;12.27;;;;;;;-148.88;100.00;-17125.47;5000196;28;20029;-84
2023/05/10 09:41:43;;;;;;;16.83;11.65;;;;;;;-148.88;100.00;-17125.47;4999938;28;20088;-86
2023/05/10 09:44:12;;;;;;;16.98;10.95;;;;;;;-148.88;100.00;-17125.47;4992523;28;20374;-84
2023/05/10 09:46:41;;;;;;;16.23;10.90;;;;;;;-148.88;100.00;-17125.47;5002807;28;20085;-85
2023/05/10 09:49:15;;;;;;;15.73;10.55;;;;;;;-148.88;100.00;-17125.47;5004576;28;20050;-83
2023/05/10 09:51:43;;;;;;;16.52;9.60;;;;;;;-148.88;100.00;-17125.47;5003522;28;20049;-85
2023/05/10 09:54:19;;;;;;;14.48;9.93;;;;;;;-148.88;100.00;-17125.47;5002079;28;20022;-87
2023/05/10 09:56:45;;;;;;;15.65;9.63;;;;;;;-148.88;100.00;-17125.47;5001919;28;20045;-89
2023/05/10 09:59:25;;;;;;;14.40;9.05;;;;;;;-148.88;100.00;-17125.47;4999862;28;20030;-87
2023/05/10 10:01:52;;;;;;;18.48;9.85;;;;;;;-148.88;100.00;-17125.47;5000356;28;20026;-85
2023/05/10 10:04:27;;;;;;;14.35;10.07;;;;;;;-148.88;100.00;-17125.47;5003200;28;20032;-86
2023/05/10 10:07:11;;;;;;;15.85;10.25;;;;;;;-148.88;100.00;-17125.47;5001886;28;20026;-85
2023/05/10 10:09:44;;;;;;;16.25;11.55;;;;;;;-148.88;100.00;-17125.47;5006035;28;20033;-85
2023/05/10 10:12:09;;;;;;;18.02;11.32;;;;;;;-148.88;100.00;-17125.47;5005906;28;20093;-87
2023/05/10 10:14:47;;;;;;;18.27;11.00;;;;;;;-148.88;100.00;-17125.47;5001293;28;20056;-86
2023/05/10 10:17:26;;;;;;;14.60;9.65;;;;;;;-148.88;100.00;-17125.47;5017492;28;20058;-86
2023/05/10 10:19:57;;;;;;;13.13;9.27;;;;;;;-148.88;100.00;-17125.47;4999554;28;20404;-86
2023/05/10 10:22:31;;;;;;;13.75;8.55;;;;;;;-148.88;100.00;-17125.47;5002281;28;20037;-86
2023/05/10 10:25:02;;;;;;;11.10;7.88;;;;;;;-148.88;98.86;-17125.47;4999787;28;20571;-87
2023/05/10 10:28:05;;;;;;;12.35;7.97;;;;;;;-148.88;100.00;-17125.47;5000949;28;20113;-87
2023/05/10 10:30:59;;;;;;;14.30;8.93;;;;;;;-148.88;98.33;-17125.47;4998856;28;20033;-86
2023/05/10 10:33:40;;;;;;;13.98;8.68;;;;;;;-148.88;98.37;-17125.47;5018905;28;20029;-87
2023/05/10 10:36:21;;;;;;;10.63;7.38;;;;;;;-148.88;97.61;-17125.47;5001209;28;20032;-86
2023/05/10 10:39:08;;;;;;;13.30;7.13;;;;;;;-148.88;98.57;-17125.47;4999620;28;20560;-88
2023/05/10 10:41:54;;;;;;;10.82;6.88;;;;;;;-148.88;95.79;-17125.47;4998550;28;20038;-86
2023/05/10 10:44:38;;;;;;;9.88;6.72;;;;;;;-148.88;95.50;-17125.47;4998652;28;20448;-86
2023/05/10 10:47:28;;;;;;;12.10;7.22;;;;;;;-148.88;94.33;-17125.47;4998143;28;20036;-86
2023/05/10 10:50:07;;;;;;;10.63;7.22;;;;;;;-148.88;92.49;-17125.47;4997287;28;20140;-87
2023/05/10 10:52:51;;;;;;;12.55;7.78;;;;;;;-148.88;94.37;-17125.47;4998326;28;20113;-86
2023/05/10 10:55:29;;;;;;;;;;;;;;;;;;;;;
2023/05/10 10:58:07;;;;;;;10.35;7.10;;;;;;;-148.88;90.86;-17125.47;5015216;28;20499;-86
2023/05/10 11:00:44;;;;;;;10.50;6.90;;;;;;;-148.88;91.66;-17125.47;5015051;28;20106;-88
2023/05/10 11:03:28;;;;;;;10.70;6.28;;;;;;;-148.88;94.61;-17125.47;4998802;28;20053;-85
2023/05/10 11:05:58;;;;;;;9.02;6.18;;;;;;;-148.88;91.13;-17125.47;4999480;28;20397;-86
2023/05/10 11:08:44;;;;;;;11.55;7.10;;;;;;;-148.88;91.52;-17125.47;5015761;28;20042;-86